Time;durP1;ratioP1;P1;durP2;ratioP2;P2;SDS_P1;SDS_P2;PMS_P1;PMS_P2;Temp;Humidity;BMP_temperature;BMP_pressure;BME280_temperature;BME280_humidity;BME280_pressure;Samples;Min_cycle;Max_cycle;Signal;HPM_P1;HPM_P2
2021/12/25 00:02:52;;;;;;;6.07;5.53;;;;;;;0.01;95.03;99123.94;10540129;28;19931;-70
2021/12/25 00:07:54;;;;;;;5.60;5.20;;;;;;;-0.09;95.41;99128.25;10540238;28;20113;-72
2021/12/25 00:12:57;;;;;;;4.85;4.45;;;;;;;-0.03;94.97;99143.75;10540533;28;20039;-70
2021/12/25 00:17:58;;;;;;;5.70;5.10;;;;;;;0.00;95.54;99151.50;10538450;28;20036;-70
2021/12/25 00:23:01;;;;;;;6.78;5.38;;;;;;;-0.19;96.06;99149.81;10540946;28;20089;-70
2021/12/25 00:28:53;;;;;;;6.25;5.75;;;;;;;-0.18;95.30;99159.28;10539877;28;20048;-70
2021/12/25 00:33:50;;;;;;;5.18;4.70;;;;;;;-0.07;94.30;99168.72;10529913;28;20117;-70
2021/12/25 00:38:53;;;;;;;5.25;4.80;;;;;;;-0.13;93.61;99175.66;10538642;28;20113;-70
2021/12/25 00:43:55;;;;;;;5.68;5.25;;;;;;;-0.27;95.45;99173.06;10538893;28;20055;-70
2021/12/25 00:48:56;;;;;;;6.68;6.07;;;;;;;-0.32;95.60;99186.00;10539735;28;20562;-70
2021/12/25 00:53:58;;;;;;;5.05;4.60;;;;;;;-0.24;95.29;99187.72;10527342;28;20052;-70
2021/12/25 00:58:59;;;;;;;4.10;3.50;;;;;;;-0.26;94.41;99198.06;10547734;28;20052;-70
2021/12/25 01:04:01;;;;;;;4.32;4.03;;;;;;;-0.10;93.61;99188.53;10548350;28;20048;-70
2021/12/25 01:09:04;;;;;;;4.53;4.13;;;;;;;-0.41;94.32;99209.25;10528978;28;20044;-70
2021/12/25 01:14:14;;;;;;;5.18;4.78;;;;;;;-0.33;95.43;99219.59;10545592;28;20531;-70
2021/12/25 01:30:21;;;;;;;2.20;2.00;;;;;;;-0.49;92.49;99246.25;10546047;28;20091;-70
2021/12/25 01:41:54;;;;;;;2.17;1.75;;;;;;;-0.56;92.19;99248.84;10545532;28;20119;-70
2021/12/25 01:47:46;;;;;;;2.88;2.15;;;;;;;-0.53;93.33;99248.00;10544466;28;20052;-71
2021/12/25 01:52:31;;;;;;;3.13;2.00;;;;;;;-0.51;92.73;99249.72;10527216;28;20443;-71
2021/12/25 01:57:33;;;;;;;2.28;2.08;;;;;;;-0.54;92.32;99243.69;10545430;28;20044;-71
2021/12/25 02:02:35;;;;;;;2.28;2.08;;;;;;;-0.62;92.85;99253.13;10543104;28;20048;-71
2021/12/25 02:07:37;;;;;;;2.90;2.70;;;;;;;-0.58;92.66;99257.44;10527685;28;20048;-71
2021/12/25 02:12:39;;;;;;;3.10;2.70;;;;;;;-0.66;94.10;99259.19;10527221;28;20046;-71
2021/12/25 02:18:03;;;;;;;3.50;2.67;;;;;;;-0.64;92.98;99270.34;10544514;28;20085;-71
2021/12/25 02:23:25;;;;;;;2.40;2.20;;;;;;;-0.66;93.55;99272.94;10543681;28;20124;-71
2021/12/25 02:28:27;;;;;;;1.20;1.00;;;;;;;-0.97;88.00;99282.34;10526506;28;20067;-71
2021/12/25 02:33:29;;;;;;;1.58;0.77;;;;;;;-1.33;86.40;99303.69;10543671;28;20097;-70
2021/12/25 02:38:32;;;;;;;1.95;0.65;;;;;;;-1.80;85.04;99320.63;10526050;28;20494;-70
2021/12/25 02:43:35;;;;;;;1.67;0.43;;;;;;;-1.86;84.09;99337.75;10526501;28;20413;-70
2021/12/25 02:48:37;;;;;;;1.00;0.50;;;;;;;-2.12;84.42;99333.28;10524978;28;20436;-70
2021/12/25 02:53:40;;;;;;;0.65;0.50;;;;;;;-2.08;84.78;99340.19;10542232;28;20048;-70
2021/12/25 02:58:42;;;;;;;0.82;0.40;;;;;;;-2.15;82.93;99328.09;10525351;28;20044;-70
2021/12/25 03:03:45;;;;;;;1.52;0.40;;;;;;;-2.28;84.04;99339.16;10524748;28;20508;-71
2021/12/25 03:08:46;;;;;;;1.65;0.40;;;;;;;-2.26;83.95;99347.75;10543487;28;20044;-70
2021/12/25 03:14:10;;;;;;;2.00;0.60;;;;;;;-2.22;83.70;99349.50;10525411;28;20413;-70
2021/12/25 03:19:20;;;;;;;1.75;0.50;;;;;;;-2.25;82.73;99349.50;10539491;22;20048;-74
2021/12/25 03:24:22;;;;;;;0.82;0.40;;;;;;;-2.44;85.00;99363.03;10527544;28;20075;-75
2021/12/25 03:29:25;;;;;;;1.27;0.40;;;;;;;-2.34;85.36;99373.44;10525965;28;20056;-74
2021/12/25 03:34:26;;;;;;;2.38;0.80;;;;;;;-2.41;84.13;99374.22;10525741;28;20526;-74
2021/12/25 03:39:30;;;;;;;0.65;0.40;;;;;;;-2.38;85.06;99381.13;10526712;28;20044;-74
2021/12/25 03:44:35;;;;;;;2.40;0.73;;;;;;;-2.41;83.28;99388.78;10525710;28;20154;-73
2021/12/25 04:00:27;;;;;;;2.55;1.83;;;;;;;-2.98;80.89;99395.03;10543657;28;20111;-74
2021/12/25 04:05:32;;;;;;;3.80;2.50;;;;;;;-2.99;81.62;99404.44;10526966;28;20050;-73
2021/12/25 04:10:39;;;;;;;3.65;2.30;;;;;;;-2.88;81.08;99402.88;10542736;28;20113;-73
2021/12/25 04:15:41;;;;;;;2.73;2.50;;;;;;;-2.98;80.17;99416.44;10526060;28;20039;-74
2021/12/25 04:20:43;;;;;;;3.28;2.15;;;;;;;-2.89;81.24;99411.41;10544647;28;20766;-73
2021/12/25 04:25:44;;;;;;;3.55;2.60;;;;;;;-2.76;82.29;99424.44;10527882;28;20113;-73
2021/12/25 04:31:11;;;;;;;3.55;2.45;;;;;;;-2.69;80.32;99406.53;10540765;28;20067;-73
2021/12/25 05:08:11;;;;;;;5.07;4.40;;;;;;;-2.61;80.40;99429.78;10537921;28;20134;-73
2021/12/25 05:13:13;;;;;;;6.20;3.60;;;;;;;-2.63;79.82;99429.72;10537267;28;20044;-74
2021/12/25 05:18:15;;;;;;;5.90;4.07;;;;;;;-2.71;81.60;99441.63;10555593;28;20101;-74
2021/12/25 05:23:17;;;;;;;4.70;4.30;;;;;;;-2.89;80.49;99444.00;10554348;28;20097;-73
2021/12/25 05:28:24;;;;;;;4.38;3.25;;;;;;;-2.85;81.26;99440.63;10536947;28;20043;-73
2021/12/25 05:33:31;;;;;;;4.00;3.05;;;;;;;-2.75;80.49;99439.00;10537653;28;20090;-72
2021/12/25 05:38:40;;;;;;;3.75;3.10;;;;;;;-2.84;78.91;99453.47;10533215;28;20461;-74
2021/12/25 05:43:49;;;;;;;4.90;2.90;;;;;;;-2.88;79.55;99456.88;10530200;28;20528;-73
2021/12/25 05:49:07;;;;;;;3.42;3.05;;;;;;;-2.86;80.06;99464.63;10530353;28;20040;-73
2021/12/25 05:54:25;;;;;;;3.97;3.38;;;;;;;-2.95;81.93;99455.06;10529543;28;20048;-72
2021/12/25 05:59:53;;;;;;;4.13;3.05;;;;;;;-2.88;80.84;99474.00;10528473;28;20044;-72
2021/12/25 06:05:13;;;;;;;4.63;3.22;;;;;;;-2.82;79.28;99474.09;10548134;28;20044;-72
2021/12/25 06:10:15;;;;;;;4.25;2.53;;;;;;;-2.98;81.13;99485.88;10528051;28;20125;-72
2021/12/25 06:15:20;;;;;;;7.10;3.15;;;;;;;-2.90;80.75;99480.84;10528405;28;20048;-72
2021/12/25 06:20:40;;;;;;;5.40;2.60;;;;;;;-3.11;79.97;99494.25;10529237;28;20413;-73
2021/12/25 06:26:06;;;;;;;4.53;2.17;;;;;;;-3.13;81.73;99496.81;10543208;28;20056;-73
2021/12/25 06:31:28;;;;;;;2.88;2.53;;;;;;;-3.07;82.27;99508.91;10549655;28;20083;-72
2021/12/25 06:36:38;;;;;;;3.42;2.83;;;;;;;-2.85;80.53;99504.91;10549763;28;20116;-73
2021/12/25 06:42:12;;;;;;;5.70;2.90;;;;;;;-3.05;81.44;99510.66;10532744;28;20505;-74
2021/12/25 06:47:15;;;;;;;7.10;2.72;;;;;;;-2.91;81.61;99502.28;10549457;28;20079;-72
2021/12/25 06:52:19;;;;;;;3.70;2.50;;;;;;;-2.99;81.88;99517.59;10514019;28;20086;-72
2021/12/25 06:57:31;;;;;;;3.55;2.30;;;;;;;-3.05;81.34;99520.09;10554419;28;20036;-72
2021/12/25 07:02:35;;;;;;;4.32;3.28;;;;;;;-2.98;81.43;99511.59;10546204;28;20097;-72
2021/12/25 07:07:55;;;;;;;3.67;3.10;;;;;;;-2.89;81.00;99516.00;10546644;28;20409;-72
2021/12/25 07:13:17;;;;;;;7.05;4.75;;;;;;;-3.14;82.75;99517.38;10528683;28;20386;-73
2021/12/25 07:18:33;;;;;;;3.75;3.38;;;;;;;-2.96;82.23;99527.06;10530522;28;20093;-72
2021/12/25 07:24:09;;;;;;;4.15;3.10;;;;;;;-2.92;80.85;99537.41;10547561;28;20048;-72
2021/12/25 07:29:18;;;;;;;4.88;3.20;;;;;;;-3.01;80.76;99541.53;10528808;28;20047;-72
2021/12/25 07:34:21;;;;;;;3.85;3.20;;;;;;;-3.08;80.93;99536.31;10547697;28;20054;-74
2021/12/25 07:39:23;;;;;;;4.45;2.90;;;;;;;-3.26;80.05;99551.47;10548299;28;20493;-72
2021/12/25 07:44:25;;;;;;;3.88;1.60;;;;;;;-3.10;76.15;99553.44;10545884;28;20131;-71
2021/12/25 07:49:27;;;;;;;5.20;3.10;;;;;;;-3.08;74.95;99551.75;10546126;28;20123;-73
2021/12/25 07:54:29;;;;;;;1.98;1.70;;;;;;;-3.02;76.58;99566.38;10545797;28;20118;-73
2021/12/25 07:59:32;;;;;;;2.60;1.30;;;;;;;-3.12;73.91;99567.09;10528953;28;20054;-72
2021/12/25 08:04:33;;;;;;;1.52;1.20;;;;;;;-3.27;73.76;99570.31;10542803;28;20048;-72
2021/12/25 08:09:35;;;;;;;3.13;2.15;;;;;;;-3.15;74.46;99559.31;10543293;28;20097;-72
2021/12/25 08:14:38;;;;;;;3.15;1.20;;;;;;;-3.20;74.38;99566.97;10544621;28;20048;-73
2021/12/25 08:19:40;;;;;;;1.60;1.20;;;;;;;-3.23;75.45;99577.22;10541567;28;20076;-71
2021/12/25 08:25:00;;;;;;;2.33;1.00;;;;;;;-3.15;74.49;99585.91;10543331;28;20052;-73
2021/12/25 08:30:27;;;;;;;2.45;0.90;;;;;;;-3.25;74.70;99588.31;10456340;28;20041;-72
2021/12/25 08:35:52;;;;;;;2.53;1.10;;;;;;;-3.07;74.33;99573.16;10437413;28;20049;-73
2021/12/25 08:40:55;;;;;;;3.40;1.00;;;;;;;-2.90;74.88;99576.00;10457308;28;20041;-71
2021/12/25 08:46:12;;;;;;;4.00;1.90;;;;;;;-3.06;75.83;99567.19;10456459;28;20060;-72
2021/12/25 08:51:14;;;;;;;2.15;0.90;;;;;;;-2.85;74.96;99580.38;10456217;28;20045;-72
2021/12/25 08:56:15;;;;;;;2.08;0.95;;;;;;;-2.74;73.81;99572.81;10455587;28;20441;-73
2021/12/25 09:01:17;;;;;;;1.35;0.90;;;;;;;-2.73;73.02;99560.81;10456350;28;20065;-73
2021/12/25 09:06:19;;;;;;;1.83;1.20;;;;;;;-2.73;74.94;99568.53;10505229;28;20113;-72
2021/12/25 09:11:21;;;;;;;2.13;0.93;;;;;;;-2.47;73.21;99574.03;10544943;28;20451;-73
2021/12/25 09:16:23;;;;;;;2.67;1.30;;;;;;;-2.52;74.03;99584.28;10552286;28;20417;-73
2021/12/25 09:21:25;;;;;;;2.67;1.30;;;;;;;-2.23;72.81;99600.09;10533379;28;20090;-72
2021/12/25 09:26:27;;;;;;;6.07;4.20;;;;;;;-2.29;73.38;99600.00;10553287;28;20089;-72
2021/12/25 09:31:29;;;;;;;6.93;5.47;;;;;;;-2.13;72.30;99604.50;10551233;28;20040;-72
2021/12/25 09:36:31;;;;;;;2.42;1.30;;;;;;;-2.04;71.40;99606.31;10552589;28;20047;-74
2021/12/25 09:41:33;;;;;;;2.85;1.15;;;;;;;-2.30;71.37;99614.59;10550148;28;20472;-71
2021/12/25 09:46:35;;;;;;;1.70;1.20;;;;;;;-2.23;71.99;99619.81;10551522;28;20489;-72
2021/12/25 09:51:38;;;;;;;4.80;1.40;;;;;;;-2.43;72.58;99610.13;10532837;28;20052;-73
2021/12/25 09:56:41;;;;;;;2.92;1.55;;;;;;;-2.57;73.21;99620.25;10554325;28;20044;-74
2021/12/25 10:01:48;;;;;;;2.05;0.98;;;;;;;-2.12;70.95;99616.53;10553158;28;20144;-73
2021/12/25 10:06:50;;;;;;;1.17;0.77;;;;;;;-2.27;72.36;99616.34;10549789;28;20105;-72
2021/12/25 10:12:10;;;;;;;3.10;1.77;;;;;;;-2.19;71.04;99616.44;10551620;28;20048;-72
2021/12/25 10:17:15;;;;;;;2.10;1.20;;;;;;;-2.45;73.09;99626.38;10550653;28;20044;-72
2021/12/25 10:22:17;;;;;;;1.73;1.05;;;;;;;-2.25;72.30;99629.25;10550417;28;20047;-71
2021/12/25 10:27:20;;;;;;;1.73;1.15;;;;;;;-2.29;70.68;99636.91;10551439;28;20048;-73
2021/12/25 10:32:24;;;;;;;2.13;1.15;;;;;;;-2.46;72.49;99635.81;10550453;28;20135;-74
2021/12/25 10:37:26;;;;;;;3.75;1.80;;;;;;;-2.36;73.68;99637.66;10531490;28;20044;-72
2021/12/25 10:42:34;;;;;;;2.38;1.30;;;;;;;-2.16;74.20;99640.53;10551543;28;20472;-71
2021/12/25 10:47:36;;;;;;;2.72;1.10;;;;;;;-2.07;71.80;99640.63;10554908;28;20131;-72
2021/12/25 10:52:43;;;;;;;2.17;1.20;;;;;;;-1.90;71.52;99642.56;10556053;28;20046;-73
2021/12/25 10:57:52;;;;;;;6.05;1.30;;;;;;;-1.82;70.42;99644.34;10553501;28;20389;-73
2021/12/25 11:03:06;;;;;;;1.70;1.35;;;;;;;-2.04;72.11;99643.25;10551531;28;20036;-72
2021/12/25 11:08:12;;;;;;;4.43;2.72;;;;;;;-2.07;72.78;99645.78;10533226;28;20052;-73
2021/12/25 11:13:26;;;;;;;2.92;1.92;;;;;;;-2.07;73.13;99639.78;10551543;28;20094;-73
2021/12/25 11:18:30;;;;;;;3.38;1.90;;;;;;;-2.06;73.38;99636.34;10548231;28;20135;-74
2021/12/25 11:23:31;;;;;;;3.78;1.73;;;;;;;-2.28;73.83;99627.47;10554543;28;20069;-72
2021/12/25 11:28:34;;;;;;;4.53;2.08;;;;;;;-2.09;73.85;99616.56;10562829;28;20439;-74
2021/12/25 11:33:37;;;;;;;3.53;2.17;;;;;;;-2.01;73.76;99628.69;10582791;28;20104;-75
2021/12/25 11:38:39;;;;;;;5.18;1.63;;;;;;;-2.26;73.00;99630.06;10588135;28;20127;-75
2021/12/25 11:43:45;;;;;;;3.50;2.78;;;;;;;-2.21;74.15;99636.13;10529133;28;20094;-73
2021/12/25 11:49:03;;;;;;;3.97;2.67;;;;;;;-2.17;74.29;99627.59;10545580;28;20127;-74
2021/12/25 11:54:42;;;;;;;3.70;2.67;;;;;;;-2.36;73.74;99644.53;10548756;28;20071;-73
2021/12/25 11:59:48;;;;;;;6.57;3.55;;;;;;;-2.65;75.46;99650.13;10547544;28;20054;-73
2021/12/25 12:05:16;;;;;;;4.53;3.55;;;;;;;-2.78;75.73;99647.34;10529524;28;20083;-73
2021/12/25 12:10:18;;;;;;;4.30;3.33;;;;;;;-3.03;76.05;99657.22;10546426;28;20055;-73
2021/12/25 12:15:47;;;;;;;8.85;3.60;;;;;;;-3.14;76.02;99659.63;10549129;28;20051;-73
2021/12/25 12:21:18;;;;;;;6.07;3.83;;;;;;;-2.78;74.69;99653.38;10544835;28;20521;-72
2021/12/25 12:26:53;;;;;;;4.05;3.25;;;;;;;-2.84;74.24;99648.97;10545435;28;20044;-71
2021/12/25 12:31:55;;;;;;;15.65;8.18;;;;;;;-2.83;73.19;99645.56;10417408;28;20050;-72
2021/12/25 12:37:14;;;;;;;6.68;4.65;;;;;;;-2.96;72.91;99659.06;10417539;28;20149;-74
2021/12/25 12:42:16;;;;;;;5.32;3.15;;;;;;;-2.77;73.06;99654.22;10401598;28;20050;-73
2021/12/25 12:47:36;;;;;;;3.55;2.33;;;;;;;-2.71;71.75;99657.75;10419757;28;20061;-74
2021/12/25 12:52:40;;;;;;;3.50;2.60;;;;;;;-2.92;72.08;99662.53;10426974;28;20064;-73
2021/12/25 12:57:45;;;;;;;5.05;2.60;;;;;;;-2.77;71.73;99674.81;10425373;28;20062;-73
2021/12/25 13:02:52;;;;;;;2.92;2.13;;;;;;;-2.97;72.18;99675.31;10425203;28;20046;-72
2021/12/25 13:07:56;;;;;;;4.28;3.20;;;;;;;-2.99;72.17;99674.44;10534057;28;20056;-72
2021/12/25 13:13:09;;;;;;;4.78;3.15;;;;;;;-3.01;72.29;99659.81;10554802;28;20562;-72
2021/12/25 13:18:12;;;;;;;3.20;2.75;;;;;;;-3.05;73.19;99677.78;10554935;28;20412;-71
2021/12/25 13:23:36;;;;;;;5.10;2.60;;;;;;;-3.15;72.55;99683.59;10554000;28;20040;-72
2021/12/25 13:28:40;;;;;;;4.20;3.30;;;;;;;-3.27;72.78;99679.97;10553978;28;20040;-72
2021/12/25 13:33:51;;;;;;;3.38;2.33;;;;;;;-3.15;72.19;99688.72;10549051;28;20118;-72
2021/12/25 13:38:53;;;;;;;3.45;2.35;;;;;;;-3.22;73.33;99697.19;10532279;28;20040;-71
2021/12/25 13:44:04;;;;;;;3.53;2.10;;;;;;;-3.07;72.56;99696.59;10536226;28;20813;-72
2021/12/25 13:49:06;;;;;;;5.85;2.10;;;;;;;-3.33;71.17;99699.53;10535242;28;20052;-72
2021/12/25 13:54:17;;;;;;;7.47;4.30;;;;;;;-3.56;73.13;99696.53;10534827;28;20485;-71
2021/12/25 13:59:20;;;;;;;3.92;2.83;;;;;;;-3.38;71.51;99703.75;10510246;28;20402;-72
2021/12/25 14:04:21;;;;;;;3.47;1.95;;;;;;;-3.48;72.86;99703.53;10495672;28;20047;-71
2021/12/25 14:09:23;;;;;;;5.18;2.80;;;;;;;-3.53;71.43;99711.16;10529789;28;20037;-71
2021/12/25 14:14:28;;;;;;;4.05;2.38;;;;;;;-3.63;72.30;99709.22;10531282;28;20048;-71
2021/12/25 14:19:31;;;;;;;4.20;2.55;;;;;;;-3.57;72.41;99717.94;10529543;28;20079;-71
2021/12/25 14:24:45;;;;;;;3.92;2.50;;;;;;;-3.72;73.10;99719.31;10530434;28;20111;-71
2021/12/25 14:29:49;;;;;;;6.20;2.47;;;;;;;-3.85;73.77;99731.94;10530736;28;20047;-71
2021/12/25 14:34:52;;;;;;;4.55;2.90;;;;;;;-3.90;73.82;99737.78;10528908;28;20055;-71
2021/12/25 14:40:14;;;;;;;4.10;2.55;;;;;;;-3.78;72.98;99734.63;10513723;28;20052;-70
2021/12/25 14:45:18;;;;;;;5.03;2.72;;;;;;;-3.98;73.72;99757.31;10529138;28;20048;-71
2021/12/25 14:50:25;;;;;;;5.75;2.80;;;;;;;-4.04;74.00;99749.47;10523615;28;20041;-71
2021/12/25 14:55:27;;;;;;;3.67;3.00;;;;;;;-4.21;75.15;99755.06;10525349;28;20033;-71
2021/12/25 15:00:30;;;;;;;4.53;3.10;;;;;;;-4.20;74.91;99759.41;10526703;28;20067;-72
2021/12/25 15:05:40;;;;;;;4.40;3.08;;;;;;;-4.32;75.85;99753.97;10527563;28;20493;-72
2021/12/25 15:10:42;;;;;;;4.20;3.05;;;;;;;-4.54;76.75;99757.72;10524354;28;20375;-72
2021/12/25 15:15:53;;;;;;;5.20;3.45;;;;;;;-4.63;77.47;99762.63;10526264;28;20043;-71
2021/12/25 15:21:08;;;;;;;6.20;3.53;;;;;;;-4.71;78.32;99776.97;10508162;28;20528;-70
2021/12/25 15:26:19;;;;;;;4.72;3.33;;;;;;;-4.47;78.34;99771.56;10490633;28;20066;-74
2021/12/25 15:31:24;;;;;;;5.70;3.38;;;;;;;-4.35;76.30;99767.59;10490474;28;20139;-74
2021/12/25 15:36:29;;;;;;;6.18;3.28;;;;;;;-4.54;76.08;99785.94;10508765;28;20050;-73
2021/12/25 15:41:31;;;;;;;9.77;4.45;;;;;;;-4.70;76.56;99783.81;10490775;28;20466;-72
2021/12/25 15:46:33;;;;;;;6.32;4.10;;;;;;;-4.59;75.99;99785.84;10505418;28;20452;-74
2021/12/25 15:51:35;;;;;;;9.52;4.00;;;;;;;-4.80;77.15;99790.41;10490550;28;20044;-73
2021/12/25 15:56:39;;;;;;;7.32;4.95;;;;;;;-4.85;77.00;99797.13;10490128;28;20520;-73
2021/12/25 16:01:41;;;;;;;5.95;3.70;;;;;;;-4.76;76.98;99805.06;10491619;28;20048;-73
2021/12/25 16:06:43;;;;;;;4.90;3.17;;;;;;;-4.74;76.72;99805.94;10506660;28;20048;-73
2021/12/25 16:11:45;;;;;;;5.65;4.35;;;;;;;-4.84;77.75;99817.66;10489380;28;20512;-72
2021/12/25 16:16:47;;;;;;;4.30;2.90;;;;;;;-4.69;76.83;99806.06;10487029;28;20048;-74
2021/12/25 16:21:49;;;;;;;6.15;4.90;;;;;;;-5.03;78.38;99814.59;10502338;28;20091;-73
2021/12/25 16:26:50;;;;;;;5.10;3.22;;;;;;;-4.91;78.67;99812.34;10506572;28;20047;-73
2021/12/25 16:31:53;;;;;;;5.70;3.97;;;;;;;-4.75;77.04;99817.03;10487081;28;20068;-74
2021/12/25 16:36:54;;;;;;;5.18;3.63;;;;;;;-4.75;77.40;99826.44;10504529;28;20052;-73
2021/12/25 16:41:58;;;;;;;5.32;4.00;;;;;;;-5.05;78.28;99831.59;10503670;28;20052;-73
2021/12/25 16:47:01;;;;;;;4.63;2.88;;;;;;;-5.36;79.02;99835.88;10503654;28;20045;-74
2021/12/25 16:52:04;;;;;;;5.35;3.90;;;;;;;-5.14;77.75;99832.22;10503955;28;20043;-73
2021/12/25 16:57:05;;;;;;;4.80;3.80;;;;;;;-5.04;77.91;99826.53;10504137;28;20037;-74
2021/12/25 17:02:09;;;;;;;5.43;4.10;;;;;;;-5.05;77.66;99818.78;10503846;28;20048;-74
2021/12/25 17:07:11;;;;;;;7.68;6.28;;;;;;;-5.50;78.93;99825.22;10486221;28;20074;-73
2021/12/25 17:12:14;;;;;;;8.63;7.38;;;;;;;-5.32;78.33;99824.88;10504085;28;20108;-73
2021/12/25 17:17:20;;;;;;;6.53;5.43;;;;;;;-5.42;78.27;99820.31;10504292;28;20044;-74
2021/12/25 17:22:22;;;;;;;8.50;5.15;;;;;;;-5.70;80.19;99832.34;10502616;28;20516;-74
2021/12/25 17:27:24;;;;;;;5.65;5.00;;;;;;;-5.58;80.10;99834.38;10502757;28;20058;-74
2021/12/25 17:32:25;;;;;;;6.30;5.45;;;;;;;-5.50;79.46;99837.16;10501750;28;20036;-75
2021/12/25 17:37:27;;;;;;;6.05;5.45;;;;;;;-5.88;80.63;99837.78;10492927;28;20052;-74
2021/12/25 17:42:30;;;;;;;6.95;5.43;;;;;;;-5.85;81.16;99840.41;10512518;28;20083;-73
2021/12/25 17:47:32;;;;;;;7.32;5.85;;;;;;;-5.68;80.60;99851.16;10493281;28;20399;-74
2021/12/25 17:52:33;;;;;;;12.25;7.13;;;;;;;-5.59;79.59;99846.31;10493550;28;20091;-74
2021/12/25 17:57:35;;;;;;;21.02;8.60;;;;;;;-5.59;80.14;99848.88;10511426;28;20045;-73
2021/12/25 18:02:37;;;;;;;11.93;10.40;;;;;;;-5.89;80.37;99855.63;10512193;28;20068;-74
2021/12/25 18:07:39;;;;;;;16.25;9.55;;;;;;;-5.97;80.45;99855.44;10513027;28;20051;-73
2021/12/25 18:12:41;;;;;;;36.30;21.38;;;;;;;-6.29;81.05;99858.63;10511065;28;20481;-74
2021/12/25 18:17:44;;;;;;;24.92;19.48;;;;;;;-6.28;80.85;99866.38;10512115;28;20087;-74
2021/12/25 18:22:46;;;;;;;20.42;17.38;;;;;;;-6.31;80.69;99862.84;10512013;28;20047;-73
2021/12/25 18:27:49;;;;;;;15.80;14.25;;;;;;;-6.41;80.69;99864.25;10514957;28;20048;-73
2021/12/25 18:32:51;;;;;;;17.23;12.77;;;;;;;-6.21;79.90;99859.75;10517111;28;20045;-73
2021/12/25 18:37:53;;;;;;;12.23;11.02;;;;;;;-6.35;79.42;99861.88;10518433;28;20071;-73
2021/12/25 18:42:55;;;;;;;13.40;10.27;;;;;;;-6.50;79.46;99852.00;10515842;28;20044;-73
2021/12/25 18:47:57;;;;;;;14.95;10.98;;;;;;;-6.45;79.98;99864.94;10514633;28;20475;-74
2021/12/25 18:53:00;;;;;;;11.35;9.95;;;;;;;-6.38;77.70;99864.31;10514023;28;20124;-73
2021/12/25 18:58:04;;;;;;;11.73;10.38;;;;;;;-6.63;78.11;99860.94;10508590;28;20541;-73
2021/12/25 19:03:06;;;;;;;15.20;11.15;;;;;;;-6.72;78.69;99865.75;10507946;28;20040;-74
2021/12/25 19:08:21;;;;;;;16.42;12.25;;;;;;;-6.74;78.87;99861.38;10489902;28;20049;-73
2021/12/25 19:13:24;;;;;;;12.63;11.32;;;;;;;-6.87;77.94;99866.06;10508814;28;20040;-73
2021/12/25 19:18:27;;;;;;;19.83;13.20;;;;;;;-7.04;78.28;99863.75;10507991;28;20040;-73
2021/12/25 19:23:29;;;;;;;15.68;13.93;;;;;;;-7.26;79.42;99855.34;10510053;28;20045;-73
2021/12/25 19:28:31;;;;;;;20.92;14.88;;;;;;;-7.40;79.41;99859.03;10488496;28;20060;-73
2021/12/25 19:33:35;;;;;;;19.25;13.45;;;;;;;-7.56;80.09;99870.38;10471845;28;20139;-72
2021/12/25 19:38:37;;;;;;;18.05;14.60;;;;;;;-7.53;80.30;99875.56;10506161;28;20044;-73
2021/12/25 19:43:38;;;;;;;22.13;16.65;;;;;;;-7.55;80.31;99878.91;10505733;28;20036;-74
2021/12/25 19:48:40;;;;;;;23.52;16.67;;;;;;;-7.79;81.36;99884.81;10485476;28;20044;-73
2021/12/25 19:53:42;;;;;;;21.02;17.98;;;;;;;-7.85;82.32;99892.22;10504808;28;20044;-73
2021/12/25 19:58:44;;;;;;;27.00;16.73;;;;;;;-7.50;81.88;99891.03;10503106;28;20509;-73
2021/12/25 20:03:46;;;;;;;19.98;16.42;;;;;;;-7.37;79.72;99887.25;10503646;28;20098;-73
2021/12/25 20:08:51;;;;;;;18.80;15.93;;;;;;;-7.44;80.18;99893.78;10505738;28;20045;-73
2021/12/25 20:13:53;;;;;;;21.80;15.57;;;;;;;-7.47;79.51;99896.25;10486954;28;20040;-74
2021/12/25 20:18:55;;;;;;;20.95;14.63;;;;;;;-7.66;79.35;99883.59;10504899;28;20044;-73
2021/12/25 20:23:58;;;;;;;15.52;14.07;;;;;;;-7.42;78.70;99889.63;10503968;28;20033;-73
2021/12/25 20:29:00;;;;;;;15.95;13.90;;;;;;;-7.49;77.92;99897.00;10487324;28;20040;-73
2021/12/25 20:34:02;;;;;;;18.65;15.13;;;;;;;-7.44;77.74;99895.47;10486317;28;20045;-73
2021/12/25 20:39:04;;;;;;;16.45;14.80;;;;;;;-7.74;78.36;99898.63;10504311;28;20494;-73
2021/12/25 20:49:23;;;;;;;20.85;15.68;;;;;;;-7.92;77.86;99891.13;10485618;28;20527;-73
2021/12/25 20:54:26;;;;;;;17.58;15.65;;;;;;;-8.10;78.73;99885.28;10504532;28;20070;-73
2021/12/25 20:59:29;;;;;;;22.63;15.95;;;;;;;-8.02;77.99;99889.00;10504564;28;20045;-73
2021/12/25 21:04:32;;;;;;;17.10;14.93;;;;;;;-8.22;78.87;99882.25;10504197;28;20408;-73
2021/12/25 21:09:34;;;;;;;16.15;14.40;;;;;;;-8.19;79.42;99888.34;10488302;28;20062;-72
2021/12/25 21:14:37;;;;;;;18.98;14.20;;;;;;;-8.01;77.79;99880.56;10494320;28;20135;-73
2021/12/25 21:19:38;;;;;;;15.35;13.85;;;;;;;-8.10;77.77;99882.75;10493318;28;20187;-73
2021/12/25 21:24:40;;;;;;;15.07;13.43;;;;;;;-8.35;78.20;99872.34;10509737;28;20070;-73
2021/12/25 21:29:43;;;;;;;21.75;16.20;;;;;;;-8.31;78.77;99872.53;10506216;28;20041;-72
2021/12/25 21:34:45;;;;;;;15.68;14.13;;;;;;;-8.33;78.50;99875.81;10506235;28;20441;-72
2021/12/25 21:39:46;;;;;;;16.02;14.27;;;;;;;-8.27;78.28;99868.44;10505292;28;20460;-72
2021/12/25 21:44:48;;;;;;;15.70;14.07;;;;;;;-8.37;77.94;99867.19;10505410;28;20045;-73
2021/12/25 21:49:50;;;;;;;15.65;13.88;;;;;;;-8.48;78.23;99865.91;10505083;28;20056;-72
2021/12/25 21:54:52;;;;;;;15.73;13.95;;;;;;;-8.60;78.58;99865.38;10505059;28;20486;-72
2021/12/25 21:59:53;;;;;;;17.42;15.02;;;;;;;-8.67;78.74;99872.78;10505508;28;20048;-72
2021/12/25 22:04:57;;;;;;;22.75;14.65;;;;;;;-8.86;80.10;99877.03;10487291;28;20045;-73
2021/12/25 22:10:03;;;;;;;16.65;13.25;;;;;;;-8.53;78.44;99877.59;10504479;28;20049;-72
2021/12/25 22:15:09;;;;;;;19.95;14.88;;;;;;;-8.31;76.99;99864.88;10486839;28;20048;-72
2021/12/25 22:20:15;;;;;;;19.15;13.35;;;;;;;-8.54;77.36;99864.00;10503395;28;20049;-72
2021/12/25 22:25:20;;;;;;;22.35;14.48;;;;;;;-8.69;78.50;99866.75;10503706;28;20045;-73
2021/12/25 22:30:25;;;;;;;14.52;12.90;;;;;;;-8.60;77.57;99867.94;10503970;28;20041;-73
2021/12/25 22:35:28;;;;;;;13.68;12.05;;;;;;;-8.66;77.33;99877.06;10504784;28;20048;-73
2021/12/25 22:40:30;;;;;;;16.35;12.82;;;;;;;-8.61;76.77;99869.63;10504805;28;20138;-73
2021/12/25 22:45:33;;;;;;;16.42;12.88;;;;;;;-8.68;76.80;99872.72;10504568;28;20044;-73
2021/12/25 22:50:37;;;;;;;15.60;12.75;;;;;;;-8.77;77.16;99865.53;10486095;28;20048;-73
2021/12/25 22:55:39;;;;;;;14.43;12.05;;;;;;;-8.81;77.13;99862.81;10486464;28;20514;-74
2021/12/25 23:01:06;;;;;;;13.20;11.80;;;;;;;-8.84;76.53;99861.00;10486695;28;20049;-73
2021/12/25 23:06:08;;;;;;;15.45;12.13;;;;;;;-8.94;76.69;99849.56;10485742;28;20048;-73
2021/12/25 23:11:10;;;;;;;14.88;12.77;;;;;;;-9.07;76.42;99851.50;10503658;28;20045;-72
2021/12/25 23:16:12;;;;;;;12.48;11.05;;;;;;;-9.22;77.11;99857.66;10504137;28;20052;-73
2021/12/25 23:21:15;;;;;;;15.10;11.90;;;;;;;-9.21;77.49;99854.34;10503394;28;20410;-73
2021/12/25 23:26:18;;;;;;;13.38;10.90;;;;;;;-9.06;76.89;99843.06;10503152;28;20044;-72
2021/12/25 23:31:20;;;;;;;13.25;10.60;;;;;;;-9.27;76.52;99848.09;10503202;28;20114;-73
2021/12/25 23:36:24;;;;;;;18.30;11.50;;;;;;;-9.36;77.03;99848.56;10501716;28;20033;-73
2021/12/25 23:41:28;;;;;;;16.92;12.07;;;;;;;-9.35;78.19;99847.75;10502780;28;20045;-73
2021/12/25 23:46:30;;;;;;;11.70;9.73;;;;;;;-9.17;77.93;99848.56;10501254;28;20048;-73
2021/12/25 23:51:40;;;;;;;12.35;10.90;;;;;;;-9.23;78.48;99839.78;10501302;28;20044;-73
2021/12/25 23:56:43;;;;;;;13.27;9.82;;;;;;;-9.29;78.91;99842.94;10501833;28;20044;-73
